createdAt,value
2019-04-10T00:02:26.831Z,99627.08
2019-04-10T00:04:53.686Z,99626.63
2019-04-10T00:07:21.174Z,99616.70
2019-04-10T00:09:49.555Z,99616.45
2019-04-10T00:12:16.394Z,99617.83
2019-04-10T00:14:43.201Z,99621.73
2019-04-10T00:17:11.023Z,99619.66
2019-04-10T00:19:38.006Z,99620.40
2019-04-10T00:22:04.767Z,99617.23
2019-04-10T00:24:32.296Z,99617.40
2019-04-10T00:27:00.149Z,99617.33
2019-04-10T00:29:27.923Z,99617.27
2019-04-10T00:31:54.813Z,99615.56
2019-04-10T00:34:21.533Z,99616.28
2019-04-10T00:36:51.328Z,99614.39
2019-04-10T00:39:18.690Z,99619.81
2019-04-10T00:41:46.179Z,99621.84
2019-04-10T00:44:13.331Z,99620.11
2019-04-10T00:46:42.122Z,99616.42
2019-04-10T00:49:09.304Z,99616.17
2019-04-10T00:51:36.116Z,99624.66
2019-04-10T00:54:03.144Z,99620.55
2019-04-10T00:56:30.315Z,99625.78
2019-04-10T00:58:57.317Z,99622.98
2019-04-10T01:01:23.934Z,99626.45
2019-04-10T01:03:51.199Z,99627.55
2019-04-10T01:06:18.110Z,99628.10
2019-04-10T01:08:44.910Z,99625.77
2019-04-10T01:11:11.762Z,99621.02
2019-04-10T01:13:38.609Z,99621.19
2019-04-10T01:16:05.410Z,99616.58
2019-04-10T01:18:33.907Z,99626.23
2019-04-10T01:21:02.027Z,99622.66
2019-04-10T01:23:28.962Z,99615.55
2019-04-10T01:28:38.341Z,99621.84
2019-04-10T01:31:06.656Z,99627.51
2019-04-10T01:33:33.602Z,99621.85
2019-04-10T01:36:00.577Z,99621.71
2019-04-10T01:38:27.531Z,99629.10
2019-04-10T01:40:55.284Z,99627.14
2019-04-10T01:43:22.903Z,99622.48
2019-04-10T01:45:49.644Z,99630.38
2019-04-10T01:48:16.228Z,99628.11
2019-04-10T01:50:42.969Z,99626.39
2019-04-10T01:53:09.767Z,99630.45
2019-04-10T01:55:36.572Z,99626.75
2019-04-10T01:58:06.109Z,99621.48
2019-04-10T02:00:33.621Z,99619.81
2019-04-10T02:03:01.186Z,99625.68
2019-04-10T02:05:28.270Z,99627.11
2019-04-10T02:08:05.784Z,99626.23
2019-04-10T02:10:23.881Z,99632.47
2019-04-10T02:12:50.935Z,99632.67
2019-04-10T02:15:17.924Z,99631.98
2019-04-10T02:17:44.633Z,99633.25
2019-04-10T02:20:12.587Z,99625.06
2019-04-10T02:22:40.476Z,99631.95
2019-04-10T02:25:07.471Z,99634.63
2019-04-10T02:27:34.373Z,99631.70
2019-04-10T02:30:01.319Z,99632.98
2019-04-10T02:32:28.413Z,99629.02
2019-04-10T02:34:55.975Z,99632.76
2019-04-10T02:37:25.028Z,99635.13
2019-04-10T02:39:56.251Z,99629.70
2019-04-10T02:42:22.453Z,99638.42
2019-04-10T02:44:50.393Z,99636.89
2019-04-10T02:47:19.202Z,99632.45
2019-04-10T02:49:47.067Z,99632.24
2019-04-10T02:52:14.860Z,99633.66
2019-04-10T02:54:43.634Z,99638.78
2019-04-10T02:57:11.345Z,99640.45
2019-04-10T02:59:39.634Z,99639.94
2019-04-10T03:02:08.344Z,99634.05
2019-04-10T03:04:35.805Z,99632.59
2019-04-10T03:07:04.371Z,99644.08
2019-04-10T03:09:49.436Z,99645.52
2019-04-10T03:12:01.223Z,99642.27
2019-04-10T03:14:28.519Z,99644.34
2019-04-10T03:16:56.658Z,99644.93
2019-04-10T03:19:23.406Z,99659.80
2019-04-10T03:21:51.279Z,99650.89
2019-04-10T03:24:19.145Z,99649.45
2019-04-10T03:26:45.947Z,99646.61
2019-04-10T03:29:13.713Z,99652.52
2019-04-10T03:31:41.779Z,99651.67
2019-04-10T03:34:16.868Z,99650.22
2019-04-10T03:39:35.556Z,99654.02
2019-04-10T03:42:00.931Z,99643.70
2019-04-10T03:44:27.682Z,99647.03
2019-04-10T03:46:55.305Z,99649.84
2019-04-10T03:49:22.170Z,99644.77
2019-04-10T03:51:49.183Z,99645.39
2019-04-10T03:54:15.954Z,99639.83
2019-04-10T03:56:42.546Z,99641.94
2019-04-10T03:59:09.225Z,99644.05
2019-04-10T04:01:36.036Z,99640.80
2019-04-10T04:04:02.835Z,99638.47
2019-04-10T04:06:29.503Z,99644.53
2019-04-10T04:09:06.949Z,99638.95
2019-04-10T04:11:24.673Z,99644.05
2019-04-10T04:13:52.145Z,99644.31
2019-04-10T04:16:19.198Z,99647.95
2019-04-10T04:18:46.035Z,99652.69
2019-04-10T04:21:12.736Z,99655.57
2019-04-10T04:23:39.420Z,99654.95
2019-04-10T04:26:07.229Z,99651.45
2019-04-10T04:28:34.243Z,99657.29
2019-04-10T04:31:01.122Z,99652.52
2019-04-10T04:33:27.708Z,99659.44
2019-04-10T04:35:55.136Z,99656.52
2019-04-10T04:38:21.987Z,99655.54
2019-04-10T04:40:48.697Z,99663.89
2019-04-10T04:43:15.277Z,99662.17
2019-04-10T04:45:42.226Z,99664.64
2019-04-10T04:48:10.443Z,99664.71
2019-04-10T04:50:38.141Z,99661.42
2019-04-10T04:53:05.108Z,99665.63
2019-04-10T04:55:31.790Z,99662.81
2019-04-10T04:57:58.586Z,99668.23
2019-04-10T05:00:25.752Z,99660.53
2019-04-10T05:02:53.446Z,99674.18
2019-04-10T05:05:20.556Z,99673.98
2019-04-10T05:07:58.420Z,99679.45
2019-04-10T05:10:16.044Z,99673.80
2019-04-10T05:12:43.624Z,99684.50
2019-04-10T05:18:06.158Z,99695.59
2019-04-10T05:20:41.203Z,99696.99
2019-04-10T05:23:02.076Z,99698.25
2019-04-10T05:25:29.376Z,99706.50
2019-04-10T05:27:57.566Z,99709.74
2019-04-10T05:30:25.069Z,99711.72
2019-04-10T05:32:51.875Z,99718.64
2019-04-10T05:35:19.312Z,99727.09
2019-04-10T05:37:46.282Z,99728.84
2019-04-10T05:40:13.059Z,99724.69
2019-04-10T05:42:39.848Z,99735.33
2019-04-10T05:45:07.149Z,99726.59
2019-04-10T05:47:34.530Z,99736.91
2019-04-10T05:50:02.054Z,99734.39
2019-04-10T05:52:28.982Z,99741.36
2019-04-10T05:54:55.797Z,99738.04
2019-04-10T05:57:22.486Z,99740.09
2019-04-10T06:00:08.886Z,99739.34
2019-04-10T06:02:36.281Z,99736.48
2019-04-10T06:05:03.745Z,99741.85
2019-04-10T06:07:30.439Z,99747.92
2019-04-10T06:10:01.957Z,99745.77
2019-04-10T06:12:26.495Z,99743.19
2019-04-10T06:14:54.615Z,99740.11
2019-04-10T06:17:22.563Z,99741.99
2019-04-10T06:19:49.586Z,99746.80
2019-04-10T06:22:16.679Z,99746.80
2019-04-10T06:24:44.585Z,99744.02
2019-04-10T06:27:12.282Z,99741.55
2019-04-10T06:29:39.341Z,99742.81
2019-04-10T06:32:07.289Z,99741.75
2019-04-10T06:34:34.323Z,99740.03
2019-04-10T06:37:01.913Z,99739.60
2019-04-10T06:39:28.951Z,99738.47
2019-04-10T06:41:56.112Z,99730.78
2019-04-10T06:44:22.912Z,99733.06
2019-04-10T06:46:49.741Z,99740.26
2019-04-10T06:49:16.494Z,99745.80
2019-04-10T06:51:43.191Z,99745.64
2019-04-10T06:54:12.963Z,99748.57
2019-04-10T06:56:40.962Z,99763.81
2019-04-10T06:59:08.734Z,99746.41
2019-04-10T07:01:44.310Z,99757.52
2019-04-10T07:04:07.567Z,99756.92
2019-04-10T07:06:47.104Z,99756.78
2019-04-10T07:09:03.998Z,99753.66
2019-04-10T07:11:34.428Z,99760.32
2019-04-10T07:14:01.617Z,99754.09
2019-04-10T07:16:31.495Z,99754.20
2019-04-10T07:18:58.473Z,99751.05
2019-04-10T07:21:27.976Z,99747.73
2019-04-10T07:23:55.236Z,99744.81
2019-04-10T07:26:34.729Z,99737.22
2019-04-10T07:28:51.901Z,99736.03
2019-04-10T07:31:39.820Z,99736.08
2019-04-10T07:34:06.802Z,99727.73
2019-04-10T07:36:34.866Z,99738.67
2019-04-10T07:39:01.727Z,99732.77
2019-04-10T07:41:48.031Z,99732.84
2019-04-10T07:44:14.818Z,99742.28
2019-04-10T07:46:42.374Z,99743.84
2019-04-10T07:49:09.110Z,99740.15
2019-04-10T07:51:36.666Z,99736.25
2019-04-10T07:54:04.112Z,99732.96
2019-04-10T07:56:31.207Z,99740.06
2019-04-10T07:58:58.277Z,99735.67
2019-04-10T08:01:24.855Z,99748.61
2019-04-10T08:03:52.844Z,99750.52
2019-04-10T08:06:20.231Z,99745.61
2019-04-10T08:08:46.939Z,99750.10
2019-04-10T08:11:13.723Z,99751.48
2019-04-10T08:13:40.796Z,99760.84
2019-04-10T08:16:08.275Z,99755.88
2019-04-10T08:18:35.220Z,99749.61
2019-04-10T08:21:02.920Z,99742.89
2019-04-10T08:23:30.184Z,99751.66
2019-04-10T08:25:57.983Z,99748.73
2019-04-10T08:28:45.406Z,99745.52
2019-04-10T08:31:12.774Z,99748.72
2019-04-10T08:33:39.693Z,99756.88
2019-04-10T08:36:07.427Z,99743.11
2019-04-10T08:38:34.549Z,99746.77
2019-04-10T08:41:01.320Z,99744.36
2019-04-10T08:43:28.113Z,99744.87
2019-04-10T08:45:55.089Z,99744.03
2019-04-10T08:48:22.023Z,99742.91
2019-04-10T08:50:50.272Z,99747.38
2019-04-10T08:53:18.022Z,99743.39
2019-04-10T08:55:45.006Z,99741.87
2019-04-10T08:58:12.090Z,99750.74
2019-04-10T09:00:38.892Z,99744.01
2019-04-10T09:03:06.668Z,99751.92
2019-04-10T09:05:33.665Z,99758.66
2019-04-10T09:08:00.534Z,99759.70
2019-04-10T09:10:46.994Z,99761.55
2019-04-10T09:13:14.644Z,99757.19
2019-04-10T09:15:42.300Z,99756.05
2019-04-10T09:18:11.224Z,99752.17
2019-04-10T09:20:38.508Z,99759.45
2019-04-10T09:25:35.367Z,99760.25
2019-04-10T09:28:02.339Z,99750.53
2019-04-10T09:30:29.225Z,99691.84
2019-04-10T09:32:56.918Z,99754.50
2019-04-10T09:35:24.641Z,99759.11
2019-04-10T09:37:52.433Z,99757.49
2019-04-10T09:40:20.293Z,99755.77
2019-04-10T09:43:07.332Z,99764.65
2019-04-10T09:45:35.033Z,99757.08
2019-04-10T09:48:01.792Z,99760.00
2019-04-10T09:50:28.588Z,99753.05
2019-04-10T09:52:56.495Z,99745.12
2019-04-10T09:55:24.293Z,99746.66
2019-04-10T09:57:51.846Z,99745.38
2019-04-10T10:03:01.499Z,99742.30
2019-04-10T10:05:28.594Z,99756.03
2019-04-10T10:07:56.218Z,99746.06
2019-04-10T10:10:23.350Z,99754.48
2019-04-10T10:12:50.516Z,99738.91
2019-04-10T10:15:17.553Z,99741.27
2019-04-10T10:17:44.542Z,99746.77
2019-04-10T10:20:33.253Z,99748.63
2019-04-10T10:22:59.936Z,99746.81
2019-04-10T10:25:26.961Z,99754.27
2019-04-10T10:27:56.499Z,99755.38
2019-04-10T10:30:23.302Z,99755.53
2019-04-10T10:32:50.944Z,99743.69
2019-04-10T10:35:18.879Z,99754.36
2019-04-10T10:37:46.315Z,99766.39
2019-04-10T10:42:56.136Z,99760.59
2019-04-10T10:45:22.934Z,99760.72
2019-04-10T10:47:50.636Z,99769.59
2019-04-10T10:50:17.552Z,99765.11
2019-04-10T10:52:44.287Z,99760.67
2019-04-10T10:55:11.636Z,99755.38
2019-04-10T10:57:39.612Z,99755.25
2019-04-10T11:00:08.388Z,99759.34
2019-04-10T11:02:36.190Z,99755.37
2019-04-10T11:05:06.877Z,99760.95
2019-04-10T11:07:32.987Z,99753.03
2019-04-10T11:10:01.356Z,99762.86
2019-04-10T11:12:28.217Z,99768.73
2019-04-10T11:14:56.190Z,99770.16
2019-04-10T11:17:23.207Z,99770.42
2019-04-10T11:19:51.286Z,99758.45
2019-04-10T11:22:22.459Z,99772.59
2019-04-10T11:24:47.116Z,99769.84
2019-04-10T11:27:14.307Z,99773.45
2019-04-10T11:29:42.673Z,99765.19
2019-04-10T11:32:09.543Z,99760.02
2019-04-10T11:34:36.312Z,99768.41
2019-04-10T11:37:19.245Z,99765.09
2019-04-10T11:39:35.251Z,99767.67
2019-04-10T11:42:01.866Z,99773.69
2019-04-10T11:44:28.902Z,99775.70
2019-04-10T11:46:57.257Z,99764.56
2019-04-10T11:49:27.230Z,99769.82
2019-04-10T11:51:55.942Z,99770.16
2019-04-10T11:54:26.567Z,99770.48
2019-04-10T11:57:13.217Z,99772.85
2019-04-10T11:59:41.231Z,99762.15
2019-04-10T12:02:08.832Z,99750.17
2019-04-10T12:04:47.991Z,99763.10
2019-04-10T12:07:05.971Z,99755.62
2019-04-10T12:12:01.607Z,99764.51
2019-04-10T12:14:28.366Z,99763.23
2019-04-10T12:16:55.778Z,99768.70
2019-04-10T12:19:25.108Z,99769.22
2019-04-10T12:21:52.139Z,99761.04
2019-04-10T12:24:18.816Z,99750.82
2019-04-10T12:26:45.627Z,99758.25
2019-04-10T12:29:12.496Z,99753.91
2019-04-10T12:31:39.768Z,99763.28
2019-04-10T12:34:06.742Z,99764.14
2019-04-10T12:36:34.305Z,99777.26
2019-04-10T12:39:01.251Z,99758.13
2019-04-10T12:41:28.055Z,99775.77
2019-04-10T12:43:54.825Z,99745.05
2019-04-10T12:46:21.490Z,99746.94
2019-04-10T12:48:48.174Z,99752.55
2019-04-10T12:51:15.186Z,99763.64
2019-04-10T12:53:41.872Z,99756.33
2019-04-10T12:56:08.447Z,99760.25
2019-04-10T12:58:35.137Z,99752.77
2019-04-10T13:01:02.597Z,99763.13
2019-04-10T13:03:29.489Z,99735.05
2019-04-10T13:05:56.281Z,99760.20
2019-04-10T13:08:31.155Z,99750.63
2019-04-10T13:10:51.961Z,99742.87
2019-04-10T13:13:19.787Z,99748.32
2019-04-10T13:15:47.636Z,99750.94
2019-04-10T13:18:14.587Z,99755.17
2019-04-10T13:20:42.011Z,99756.13
2019-04-10T13:23:08.960Z,99749.27
2019-04-10T13:25:36.639Z,99752.30
2019-04-10T13:28:03.535Z,99751.41
2019-04-10T13:30:41.517Z,99757.21
2019-04-10T13:32:58.802Z,99756.19
2019-04-10T13:35:26.165Z,99757.97
2019-04-10T13:37:52.906Z,99739.34
2019-04-10T13:40:19.581Z,99751.21
2019-04-10T13:42:47.372Z,99747.47
2019-04-10T13:45:35.573Z,99739.61
2019-04-10T13:48:02.276Z,99744.24
2019-04-10T13:50:28.844Z,99748.30
2019-04-10T13:52:55.564Z,99749.27
2019-04-10T13:55:22.351Z,99740.76
2019-04-10T13:57:49.133Z,99732.18
2019-04-10T14:00:35.601Z,99747.23
2019-04-10T14:03:02.497Z,99748.36
2019-04-10T14:05:32.214Z,99750.22
2019-04-10T14:07:58.272Z,99758.33
2019-04-10T14:10:25.106Z,99752.22
2019-04-10T14:12:52.018Z,99756.52
2019-04-10T14:15:18.916Z,99757.03
2019-04-10T14:17:45.946Z,99751.06
2019-04-10T14:20:15.435Z,99765.90
2019-04-10T14:22:53.647Z,99760.00
2019-04-10T14:25:33.811Z,99751.78
2019-04-10T14:28:01.024Z,99751.37
2019-04-10T14:30:33.856Z,99748.45
2019-04-10T14:33:00.913Z,99756.69
2019-04-10T14:35:27.661Z,99764.37
2019-04-10T14:37:54.657Z,99764.77
2019-04-10T14:40:22.143Z,99763.97
2019-04-10T14:42:49.438Z,99761.91
2019-04-10T14:45:17.190Z,99769.75
2019-04-10T14:47:44.155Z,99770.17
2019-04-10T14:50:10.944Z,99768.39
2019-04-10T14:52:37.676Z,99770.73
2019-04-10T14:55:04.551Z,99764.37
2019-04-10T14:57:31.140Z,99763.50
2019-04-10T14:59:57.987Z,99774.41
2019-04-10T15:02:24.637Z,99779.08
2019-04-10T15:04:51.335Z,99790.27
2019-04-10T15:07:18.108Z,99779.92
2019-04-10T15:09:44.796Z,99783.59
2019-04-10T15:12:12.259Z,99779.44
2019-04-10T15:14:39.578Z,99777.15
2019-04-10T15:17:07.773Z,99772.31
2019-04-10T15:19:34.886Z,99768.88
2019-04-10T15:22:01.569Z,99777.79
2019-04-10T15:24:28.357Z,99774.72
2019-04-10T15:26:55.645Z,99776.00
2019-04-10T15:29:22.709Z,99781.14
2019-04-10T15:31:50.213Z,99787.39
2019-04-10T15:34:18.208Z,99798.64
2019-04-10T15:36:47.219Z,99802.32
2019-04-10T15:39:14.813Z,99804.16
2019-04-10T15:41:41.563Z,99805.05
2019-04-10T15:44:08.347Z,99805.83
2019-04-10T15:46:35.319Z,99812.23
2019-04-10T15:49:02.772Z,99797.00
2019-04-10T15:51:30.047Z,99792.70
2019-04-10T15:53:57.077Z,99803.50
2019-04-10T15:56:23.848Z,99803.23
2019-04-10T15:58:50.599Z,99804.23
2019-04-10T16:01:19.178Z,99812.19
2019-04-10T16:03:47.177Z,99810.26
2019-04-10T16:06:14.038Z,99811.33
2019-04-10T16:08:40.722Z,99800.44
2019-04-10T16:11:39.081Z,99804.61
2019-04-10T16:14:16.936Z,99806.45
2019-04-10T16:17:04.711Z,99817.28
2019-04-10T16:19:40.174Z,99815.47
2019-04-10T16:22:21.327Z,99818.94
2019-04-10T16:25:07.777Z,99820.48
2019-04-10T16:27:34.380Z,99814.41
2019-04-10T16:30:03.282Z,99819.30
2019-04-10T16:32:29.854Z,99821.47
2019-04-10T16:34:56.868Z,99820.35
2019-04-10T16:37:24.235Z,99817.13
2019-04-10T16:39:58.482Z,99824.59
2019-04-10T16:42:19.685Z,99823.67
2019-04-10T16:44:46.379Z,99825.30
2019-04-10T16:47:14.085Z,99834.77
2019-04-10T16:49:41.221Z,99840.73
2019-04-10T16:52:09.064Z,99844.48
2019-04-10T16:54:35.847Z,99838.36
2019-04-10T16:57:02.538Z,99833.98
2019-04-10T16:59:30.003Z,99836.97
2019-04-10T17:01:57.319Z,99838.52
2019-04-10T17:04:23.983Z,99841.70
2019-04-10T17:06:50.778Z,99847.40
2019-04-10T17:09:20.705Z,99841.94
2019-04-10T17:11:47.466Z,99840.45
2019-04-10T17:14:15.104Z,99849.23
2019-04-10T17:16:42.044Z,99849.43
2019-04-10T17:19:09.721Z,99848.42
2019-04-10T17:21:36.607Z,99851.23
2019-04-10T17:24:03.373Z,99852.56
2019-04-10T17:26:30.986Z,99849.34
2019-04-10T17:28:58.856Z,99853.55
2019-04-10T17:31:26.659Z,99857.47
2019-04-10T17:33:54.510Z,99860.91
2019-04-10T17:36:21.440Z,99861.00
2019-04-10T17:38:48.989Z,99865.05
2019-04-10T17:41:16.005Z,99862.94
2019-04-10T17:43:43.458Z,99864.19
2019-04-10T17:46:11.115Z,99872.39
2019-04-10T17:48:39.243Z,99872.64
2019-04-10T17:51:07.855Z,99879.12
2019-04-10T17:53:35.726Z,99878.64
2019-04-10T17:56:03.865Z,99882.55
2019-04-10T17:58:31.734Z,99882.75
2019-04-10T18:00:59.811Z,99886.27
2019-04-10T18:03:39.687Z,99889.55
2019-04-10T18:05:55.280Z,99890.22
2019-04-10T18:08:24.098Z,99888.66
2019-04-10T18:10:53.797Z,99895.44
2019-04-10T18:13:20.420Z,99903.48
2019-04-10T18:15:48.374Z,99909.86
2019-04-10T18:18:15.764Z,99901.50
2019-04-10T18:20:42.743Z,99917.09
2019-04-10T18:23:09.509Z,99914.12
2019-04-10T18:25:36.295Z,99919.70
2019-04-10T18:28:03.428Z,99929.53
2019-04-10T18:30:32.970Z,99934.52
2019-04-10T18:32:58.941Z,99929.74
2019-04-10T18:35:26.757Z,99936.30
2019-04-10T18:37:53.637Z,99937.84
2019-04-10T18:40:21.185Z,99944.80
2019-04-10T18:42:47.888Z,99946.11
2019-04-10T18:45:14.637Z,99953.42
2019-04-10T18:47:41.808Z,99956.47
2019-04-10T18:50:09.879Z,99951.98
2019-04-10T18:52:37.330Z,99959.91
2019-04-10T18:55:05.835Z,99957.92
2019-04-10T18:57:34.184Z,99962.29
2019-04-10T19:00:26.109Z,99974.55
2019-04-10T19:03:13.033Z,99962.41
2019-04-10T19:05:43.679Z,99962.41
2019-04-10T19:08:12.756Z,99974.47
2019-04-10T19:10:39.074Z,99986.22
2019-04-10T19:13:05.947Z,99973.34
2019-04-10T19:15:32.895Z,99972.27
2019-04-10T19:17:59.753Z,99978.15
2019-04-10T19:20:26.824Z,99980.63
2019-04-10T19:22:54.950Z,99979.30
2019-04-10T19:25:22.736Z,99979.83
2019-04-10T19:27:50.570Z,99985.81
2019-04-10T19:30:31.958Z,99990.11
2019-04-10T19:32:59.578Z,99984.13
2019-04-10T19:35:26.735Z,99986.70
2019-04-10T19:37:54.607Z,99979.52
2019-04-10T19:40:21.496Z,99979.52
2019-04-10T19:42:49.265Z,99985.83
2019-04-10T19:45:17.390Z,99985.44
2019-04-10T19:47:44.406Z,99992.05
2019-04-10T19:50:11.207Z,99991.54
2019-04-10T19:52:38.385Z,99995.40
2019-04-10T19:55:05.507Z,100007.77
2019-04-10T19:57:33.013Z,99995.11
2019-04-10T20:00:00.032Z,99999.23
2019-04-10T20:02:26.916Z,100007.80
2019-04-10T20:04:53.606Z,100004.16
2019-04-10T20:07:20.743Z,100006.97
2019-04-10T20:09:48.552Z,100005.20
2019-04-10T20:12:16.143Z,100016.19
2019-04-10T20:14:43.023Z,100011.73
2019-04-10T20:17:10.044Z,100013.69
2019-04-10T20:19:36.825Z,100010.63
2019-04-10T20:22:04.623Z,100009.21
2019-04-10T20:24:32.518Z,100015.50
2019-04-10T20:26:59.488Z,100017.67
2019-04-10T20:29:26.709Z,100022.93
2019-04-10T20:31:55.362Z,100025.76
2019-04-10T20:34:23.182Z,100026.20
2019-04-10T20:36:50.389Z,100027.80
2019-04-10T20:39:17.179Z,100034.52
2019-04-10T20:41:51.187Z,100043.45
2019-04-10T20:44:12.452Z,100041.88
2019-04-10T20:46:39.143Z,100044.69
2019-04-10T20:49:25.957Z,100041.39
2019-04-10T20:51:53.576Z,100045.83
2019-04-10T20:54:20.557Z,100049.52
2019-04-10T20:56:48.558Z,100052.08
2019-04-10T20:59:15.510Z,100053.69
2019-04-10T21:01:42.320Z,100057.37
2019-04-10T21:04:09.471Z,100061.28
2019-04-10T21:06:39.136Z,100065.77
2019-04-10T21:09:07.393Z,100066.22
2019-04-10T21:11:35.549Z,100072.19
2019-04-10T21:14:03.094Z,100069.83
2019-04-10T21:16:29.644Z,100073.48
2019-04-10T21:18:56.256Z,100070.77
2019-04-10T21:21:22.937Z,100081.83
2019-04-10T21:23:49.656Z,100072.70
2019-04-10T21:26:16.448Z,100073.61
2019-04-10T21:28:43.717Z,100078.42
2019-04-10T21:31:45.483Z,100082.02
2019-04-10T21:34:19.721Z,100088.95
2019-04-10T21:36:46.511Z,100093.72
2019-04-10T21:39:13.820Z,100089.33
2019-04-10T21:41:41.126Z,100092.63
2019-04-10T21:44:09.647Z,100094.14
2019-04-10T21:46:36.811Z,100101.69
2019-04-10T21:49:03.689Z,100101.31
2019-04-10T21:51:30.631Z,100099.34
2019-04-10T21:53:57.942Z,100102.94
2019-04-10T21:56:24.868Z,100103.44
2019-04-10T21:58:51.472Z,100105.03
2019-04-10T22:01:40.298Z,100108.97
2019-04-10T22:04:08.130Z,100103.34
2019-04-10T22:06:55.750Z,100106.34
2019-04-10T22:09:39.047Z,100108.03
2019-04-10T22:12:25.892Z,100102.91
2019-04-10T22:14:48.077Z,100107.25
2019-04-10T22:17:15.298Z,100107.23
2019-04-10T22:19:43.080Z,100109.78
2019-04-10T22:22:11.249Z,100110.78
2019-04-10T22:24:38.429Z,100108.03
2019-04-10T22:27:05.122Z,100116.71
2019-04-10T22:29:32.702Z,100118.39
2019-04-10T22:31:59.932Z,100121.03
2019-04-10T22:34:27.673Z,100119.23
2019-04-10T22:36:54.652Z,100124.54
2019-04-10T22:39:23.110Z,100074.63
2019-04-10T22:41:50.449Z,100129.86
2019-04-10T22:44:17.643Z,100133.56
2019-04-10T22:46:44.682Z,100134.14
2019-04-10T22:49:12.412Z,100132.16
2019-04-10T22:51:39.782Z,100137.42
2019-04-10T22:54:06.616Z,100135.48
2019-04-10T22:56:33.677Z,100136.30
2019-04-10T22:59:01.645Z,100133.38
2019-04-10T23:01:29.311Z,100148.55
2019-04-10T23:03:56.021Z,100140.92
2019-04-10T23:06:23.058Z,100142.97
2019-04-10T23:08:49.921Z,100139.03
2019-04-10T23:11:18.616Z,100137.23
2019-04-10T23:13:45.887Z,100143.23
2019-04-10T23:16:15.301Z,100133.49
2019-04-10T23:18:41.480Z,100142.34
2019-04-10T23:21:08.278Z,100135.86
2019-04-10T23:23:34.974Z,100143.14
2019-04-10T23:26:01.758Z,100137.58
2019-04-10T23:28:28.475Z,100144.38
2019-04-10T23:30:55.163Z,100142.95
2019-04-10T23:33:21.954Z,100149.83
2019-04-10T23:35:49.454Z,100145.53
2019-04-10T23:38:17.482Z,100148.02
2019-04-10T23:40:45.227Z,100151.30
2019-04-10T23:43:15.286Z,100147.90
2019-04-10T23:45:40.563Z,100154.82
2019-04-10T23:48:07.249Z,100163.69
2019-04-10T23:50:34.510Z,100157.56
2019-04-10T23:53:02.370Z,100163.81
2019-04-10T23:55:30.207Z,100163.88
2019-04-10T23:57:57.928Z,100170.06
